sensor_id;sensor_type;location;lat;lon;timestamp;temperature;humidity
7688;DHT22;30781;48.154;11.554;2022-11-23T00:00:58;7.50;97.60
7688;DHT22;30781;48.154;11.554;2022-11-23T00:03:27;7.60;97.80
7688;DHT22;30781;48.154;11.554;2022-11-23T00:05:54;7.60;97.80
7688;DHT22;30781;48.154;11.554;2022-11-23T00:08:21;7.60;97.80
7688;DHT22;30781;48.154;11.554;2022-11-23T00:10:49;7.60;97.80
7688;DHT22;30781;48.154;11.554;2022-11-23T00:13:16;7.60;97.80
7688;DHT22;30781;48.154;11.554;2022-11-23T00:15:44;7.70;97.80
7688;DHT22;30781;48.154;11.554;2022-11-23T00:18:11;7.70;97.80
7688;DHT22;30781;48.154;11.554;2022-11-23T00:20:40;7.70;98.20
7688;DHT22;30781;48.154;11.554;2022-11-23T00:23:08;7.70;97.90
7688;DHT22;30781;48.154;11.554;2022-11-23T00:25:35;7.70;98.00
7688;DHT22;30781;48.154;11.554;2022-11-23T00:28:03;7.70;98.00
7688;DHT22;30781;48.154;11.554;2022-11-23T00:30:30;7.70;98.10
7688;DHT22;30781;48.154;11.554;2022-11-23T00:32:59;7.70;98.00
7688;DHT22;30781;48.154;11.554;2022-11-23T00:35:27;7.70;97.90
7688;DHT22;30781;48.154;11.554;2022-11-23T00:37:56;7.70;97.90
7688;DHT22;30781;48.154;11.554;2022-11-23T00:40:23;7.70;97.90
7688;DHT22;30781;48.154;11.554;2022-11-23T00:42:50;7.70;97.90
7688;DHT22;30781;48.154;11.554;2022-11-23T00:45:18;7.70;97.80
7688;DHT22;30781;48.154;11.554;2022-11-23T00:47:45;7.70;97.80
7688;DHT22;30781;48.154;11.554;2022-11-23T00:50:13;7.70;97.80
7688;DHT22;30781;48.154;11.554;2022-11-23T00:52:40;7.70;97.70
7688;DHT22;30781;48.154;11.554;2022-11-23T00:55:10;7.70;97.80
7688;DHT22;30781;48.154;11.554;2022-11-23T00:57:37;7.70;97.80
7688;DHT22;30781;48.154;11.554;2022-11-23T01:00:06;7.70;97.80
7688;DHT22;30781;48.154;11.554;2022-11-23T01:02:34;7.70;97.80
7688;DHT22;30781;48.154;11.554;2022-11-23T01:05:02;7.70;97.80
7688;DHT22;30781;48.154;11.554;2022-11-23T01:07:29;7.70;97.80
7688;DHT22;30781;48.154;11.554;2022-11-23T01:09:56;7.60;97.80
7688;DHT22;30781;48.154;11.554;2022-11-23T01:12:27;7.60;97.80
7688;DHT22;30781;48.154;11.554;2022-11-23T01:14:55;7.60;97.80
7688;DHT22;30781;48.154;11.554;2022-11-23T01:17:22;7.60;97.80
7688;DHT22;30781;48.154;11.554;2022-11-23T01:19:49;7.50;97.80
7688;DHT22;30781;48.154;11.554;2022-11-23T01:22:17;7.50;97.90
7688;DHT22;30781;48.154;11.554;2022-11-23T01:24:45;7.50;98.00
7688;DHT22;30781;48.154;11.554;2022-11-23T01:27:12;7.50;98.00
7688;DHT22;30781;48.154;11.554;2022-11-23T01:29:41;7.50;98.10
7688;DHT22;30781;48.154;11.554;2022-11-23T01:32:10;7.50;98.20
7688;DHT22;30781;48.154;11.554;2022-11-23T01:34:38;7.50;98.30
7688;DHT22;30781;48.154;11.554;2022-11-23T01:37:05;7.50;98.30
7688;DHT22;30781;48.154;11.554;2022-11-23T01:39:33;7.40;98.20
7688;DHT22;30781;48.154;11.554;2022-11-23T01:42:00;7.40;98.20
7688;DHT22;30781;48.154;11.554;2022-11-23T01:44:34;7.40;98.20
7688;DHT22;30781;48.154;11.554;2022-11-23T01:47:05;7.40;98.20
7688;DHT22;30781;48.154;11.554;2022-11-23T01:49:34;7.40;98.30
7688;DHT22;30781;48.154;11.554;2022-11-23T01:52:05;7.40;98.30
7688;DHT22;30781;48.154;11.554;2022-11-23T01:54:37;7.40;98.40
7688;DHT22;30781;48.154;11.554;2022-11-23T01:57:06;7.30;98.30
7688;DHT22;30781;48.154;11.554;2022-11-23T01:59:35;7.30;98.30
7688;DHT22;30781;48.154;11.554;2022-11-23T02:02:04;7.30;98.30
7688;DHT22;30781;48.154;11.554;2022-11-23T02:04:35;7.30;98.30
7688;DHT22;30781;48.154;11.554;2022-11-23T02:07:04;7.20;98.30
7688;DHT22;30781;48.154;11.554;2022-11-23T02:09:32;7.20;98.30
7688;DHT22;30781;48.154;11.554;2022-11-23T02:12:01;7.20;98.30
7688;DHT22;30781;48.154;11.554;2022-11-23T02:14:29;7.10;98.20
7688;DHT22;30781;48.154;11.554;2022-11-23T02:16:57;7.10;98.30
7688;DHT22;30781;48.154;11.554;2022-11-23T02:19:33;7.00;98.40
7688;DHT22;30781;48.154;11.554;2022-11-23T02:22:05;7.00;98.50
7688;DHT22;30781;48.154;11.554;2022-11-23T02:24:41;7.00;98.50
7688;DHT22;30781;48.154;11.554;2022-11-23T02:27:15;7.00;98.50
7688;DHT22;30781;48.154;11.554;2022-11-23T02:29:48;6.90;98.40
7688;DHT22;30781;48.154;11.554;2022-11-23T02:32:18;6.90;98.40
7688;DHT22;30781;48.154;11.554;2022-11-23T02:34:49;6.80;98.30
7688;DHT22;30781;48.154;11.554;2022-11-23T02:37:17;6.70;98.30
7688;DHT22;30781;48.154;11.554;2022-11-23T02:39:46;6.70;98.40
7688;DHT22;30781;48.154;11.554;2022-11-23T02:42:16;6.70;98.50
7688;DHT22;30781;48.154;11.554;2022-11-23T02:44:53;6.50;98.50
7688;DHT22;30781;48.154;11.554;2022-11-23T02:47:22;6.50;98.50
7688;DHT22;30781;48.154;11.554;2022-11-23T02:49:49;6.50;98.70
7688;DHT22;30781;48.154;11.554;2022-11-23T02:52:17;6.40;98.70
7688;DHT22;30781;48.154;11.554;2022-11-23T02:54:44;6.40;98.70
7688;DHT22;30781;48.154;11.554;2022-11-23T02:57:12;6.30;98.70
7688;DHT22;30781;48.154;11.554;2022-11-23T02:59:40;6.30;98.80
7688;DHT22;30781;48.154;11.554;2022-11-23T03:02:07;6.30;98.90
7688;DHT22;30781;48.154;11.554;2022-11-23T03:04:35;6.20;98.80
7688;DHT22;30781;48.154;11.554;2022-11-23T03:07:02;6.20;98.90
7688;DHT22;30781;48.154;11.554;2022-11-23T03:09:29;6.20;98.90
7688;DHT22;30781;48.154;11.554;2022-11-23T03:11:57;6.10;99.00
7688;DHT22;30781;48.154;11.554;2022-11-23T03:14:24;6.10;99.00
7688;DHT22;30781;48.154;11.554;2022-11-23T03:16:53;6.10;99.00
7688;DHT22;30781;48.154;11.554;2022-11-23T03:19:20;6.00;99.00
7688;DHT22;30781;48.154;11.554;2022-11-23T03:21:47;6.00;99.00
7688;DHT22;30781;48.154;11.554;2022-11-23T03:24:15;6.00;99.10
7688;DHT22;30781;48.154;11.554;2022-11-23T03:26:42;6.00;99.20
7688;DHT22;30781;48.154;11.554;2022-11-23T03:29:09;5.90;99.30
7688;DHT22;30781;48.154;11.554;2022-11-23T03:31:37;6.00;99.40
7688;DHT22;30781;48.154;11.554;2022-11-23T03:34:05;5.90;99.40
7688;DHT22;30781;48.154;11.554;2022-11-23T03:36:33;5.90;99.50
7688;DHT22;30781;48.154;11.554;2022-11-23T03:39:05;5.90;99.50
7688;DHT22;30781;48.154;11.554;2022-11-23T03:41:32;5.90;99.50
7688;DHT22;30781;48.154;11.554;2022-11-23T03:43:59;5.80;99.50
7688;DHT22;30781;48.154;11.554;2022-11-23T03:46:27;5.80;99.60
7688;DHT22;30781;48.154;11.554;2022-11-23T03:48:54;5.80;99.60
7688;DHT22;30781;48.154;11.554;2022-11-23T03:51:23;5.80;99.60
7688;DHT22;30781;48.154;11.554;2022-11-23T03:53:50;5.70;99.60
7688;DHT22;30781;48.154;11.554;2022-11-23T03:56:17;5.70;99.60
7688;DHT22;30781;48.154;11.554;2022-11-23T03:58:45;5.70;99.70
7688;DHT22;30781;48.154;11.554;2022-11-23T04:01:12;5.70;99.90
7688;DHT22;30781;48.154;11.554;2022-11-23T04:03:41;5.70;99.80
7688;DHT22;30781;48.154;11.554;2022-11-23T04:06:08;5.60;99.80
7688;DHT22;30781;48.154;11.554;2022-11-23T04:08:39;5.60;99.90
7688;DHT22;30781;48.154;11.554;2022-11-23T04:11:07;5.60;99.90
7688;DHT22;30781;48.154;11.554;2022-11-23T04:13:34;5.50;99.90
7688;DHT22;30781;48.154;11.554;2022-11-23T04:16:01;5.50;99.90
7688;DHT22;30781;48.154;11.554;2022-11-23T04:18:31;5.50;99.90
7688;DHT22;30781;48.154;11.554;2022-11-23T04:20:58;5.50;99.90
7688;DHT22;30781;48.154;11.554;2022-11-23T04:23:26;5.50;99.90
7688;DHT22;30781;48.154;11.554;2022-11-23T04:25:54;5.50;99.90
7688;DHT22;30781;48.154;11.554;2022-11-23T04:28:22;5.50;99.90
7688;DHT22;30781;48.154;11.554;2022-11-23T04:30:51;5.50;99.90
7688;DHT22;30781;48.154;11.554;2022-11-23T04:33:19;5.50;99.90
7688;DHT22;30781;48.154;11.554;2022-11-23T04:35:46;5.50;99.90
7688;DHT22;30781;48.154;11.554;2022-11-23T04:38:13;5.50;99.90
7688;DHT22;30781;48.154;11.554;2022-11-23T04:40:40;5.50;99.90
7688;DHT22;30781;48.154;11.554;2022-11-23T04:43:09;5.50;99.90
7688;DHT22;30781;48.154;11.554;2022-11-23T04:45:37;5.50;99.90
7688;DHT22;30781;48.154;11.554;2022-11-23T04:48:05;5.50;99.90
7688;DHT22;30781;48.154;11.554;2022-11-23T04:50:32;5.50;99.90
7688;DHT22;30781;48.154;11.554;2022-11-23T04:53:00;5.50;99.90
7688;DHT22;30781;48.154;11.554;2022-11-23T04:55:27;5.50;99.90
7688;DHT22;30781;48.154;11.554;2022-11-23T04:57:55;5.50;99.90
7688;DHT22;30781;48.154;11.554;2022-11-23T05:00:26;5.50;99.90
7688;DHT22;30781;48.154;11.554;2022-11-23T05:02:54;5.60;99.90
7688;DHT22;30781;48.154;11.554;2022-11-23T05:05:21;5.60;99.90
7688;DHT22;30781;48.154;11.554;2022-11-23T05:07:48;5.70;99.90
7688;DHT22;30781;48.154;11.554;2022-11-23T05:10:16;5.70;99.90
7688;DHT22;30781;48.154;11.554;2022-11-23T05:12:43;5.80;99.90
7688;DHT22;30781;48.154;11.554;2022-11-23T05:15:11;5.90;99.90
7688;DHT22;30781;48.154;11.554;2022-11-23T05:17:44;5.90;99.90
7688;DHT22;30781;48.154;11.554;2022-11-23T05:20:14;6.00;99.90
7688;DHT22;30781;48.154;11.554;2022-11-23T05:22:58;6.10;99.90
7688;DHT22;30781;48.154;11.554;2022-11-23T05:25:25;6.10;99.90
7688;DHT22;30781;48.154;11.554;2022-11-23T05:27:53;6.10;99.90
7688;DHT22;30781;48.154;11.554;2022-11-23T05:30:22;6.20;99.90
7688;DHT22;30781;48.154;11.554;2022-11-23T05:32:51;6.20;99.90
7688;DHT22;30781;48.154;11.554;2022-11-23T05:35:21;6.20;99.90
7688;DHT22;30781;48.154;11.554;2022-11-23T05:37:49;6.30;99.90
7688;DHT22;30781;48.154;11.554;2022-11-23T05:40:16;6.30;99.90
7688;DHT22;30781;48.154;11.554;2022-11-23T05:42:47;6.30;99.90
7688;DHT22;30781;48.154;11.554;2022-11-23T05:45:16;6.40;99.90
7688;DHT22;30781;48.154;11.554;2022-11-23T05:47:55;6.40;99.90
7688;DHT22;30781;48.154;11.554;2022-11-23T05:50:27;6.50;99.90
7688;DHT22;30781;48.154;11.554;2022-11-23T05:52:55;6.50;99.90
7688;DHT22;30781;48.154;11.554;2022-11-23T05:55:22;6.50;99.80
7688;DHT22;30781;48.154;11.554;2022-11-23T05:57:50;6.50;99.70
7688;DHT22;30781;48.154;11.554;2022-11-23T06:00:18;6.50;99.90
7688;DHT22;30781;48.154;11.554;2022-11-23T06:02:48;6.50;99.70
7688;DHT22;30781;48.154;11.554;2022-11-23T06:05:17;6.60;99.60
7688;DHT22;30781;48.154;11.554;2022-11-23T06:07:44;6.60;99.60
7688;DHT22;30781;48.154;11.554;2022-11-23T06:10:14;6.60;99.60
7688;DHT22;30781;48.154;11.554;2022-11-23T06:12:41;6.60;99.60
7688;DHT22;30781;48.154;11.554;2022-11-23T06:15:12;6.60;99.50
7688;DHT22;30781;48.154;11.554;2022-11-23T06:17:42;6.60;99.50
7688;DHT22;30781;48.154;11.554;2022-11-23T06:20:10;6.60;99.40
7688;DHT22;30781;48.154;11.554;2022-11-23T06:22:41;6.60;99.50
7688;DHT22;30781;48.154;11.554;2022-11-23T06:25:10;6.60;99.50
7688;DHT22;30781;48.154;11.554;2022-11-23T06:27:37;6.70;99.50
7688;DHT22;30781;48.154;11.554;2022-11-23T06:30:08;6.70;99.50
7688;DHT22;30781;48.154;11.554;2022-11-23T06:32:37;6.70;99.50
7688;DHT22;30781;48.154;11.554;2022-11-23T06:35:05;6.70;99.50
7688;DHT22;30781;48.154;11.554;2022-11-23T06:37:33;6.70;99.60
7688;DHT22;30781;48.154;11.554;2022-11-23T06:40:22;6.80;99.60
7688;DHT22;30781;48.154;11.554;2022-11-23T06:42:57;6.80;99.60
7688;DHT22;30781;48.154;11.554;2022-11-23T06:45:26;6.80;99.60
7688;DHT22;30781;48.154;11.554;2022-11-23T06:48:11;6.80;99.50
7688;DHT22;30781;48.154;11.554;2022-11-23T06:50:38;6.80;99.50
7688;DHT22;30781;48.154;11.554;2022-11-23T06:53:06;6.80;99.50
7688;DHT22;30781;48.154;11.554;2022-11-23T06:55:39;6.80;99.50
7688;DHT22;30781;48.154;11.554;2022-11-23T06:58:08;6.90;99.80
7688;DHT22;30781;48.154;11.554;2022-11-23T07:00:35;6.90;99.90
7688;DHT22;30781;48.154;11.554;2022-11-23T07:03:03;7.00;99.90
7688;DHT22;30781;48.154;11.554;2022-11-23T07:05:30;7.00;99.70
7688;DHT22;30781;48.154;11.554;2022-11-23T07:07:57;7.10;99.50
7688;DHT22;30781;48.154;11.554;2022-11-23T07:10:25;7.10;99.40
7688;DHT22;30781;48.154;11.554;2022-11-23T07:12:54;7.20;99.30
7688;DHT22;30781;48.154;11.554;2022-11-23T07:15:23;7.20;99.30
7688;DHT22;30781;48.154;11.554;2022-11-23T07:17:50;7.20;99.20
7688;DHT22;30781;48.154;11.554;2022-11-23T07:20:20;7.20;99.10
7688;DHT22;30781;48.154;11.554;2022-11-23T07:22:50;7.20;99.00
7688;DHT22;30781;48.154;11.554;2022-11-23T07:25:24;7.20;99.00
7688;DHT22;30781;48.154;11.554;2022-11-23T07:28:01;7.20;99.00
7688;DHT22;30781;48.154;11.554;2022-11-23T07:30:31;7.20;98.90
7688;DHT22;30781;48.154;11.554;2022-11-23T07:32:59;7.20;98.80
7688;DHT22;30781;48.154;11.554;2022-11-23T07:35:33;7.20;98.70
7688;DHT22;30781;48.154;11.554;2022-11-23T07:38:01;7.20;98.70
7688;DHT22;30781;48.154;11.554;2022-11-23T07:40:28;7.20;98.80
7688;DHT22;30781;48.154;11.554;2022-11-23T07:43:00;7.30;98.80
7688;DHT22;30781;48.154;11.554;2022-11-23T07:45:28;7.30;98.80
7688;DHT22;30781;48.154;11.554;2022-11-23T07:48:00;7.40;98.80
7688;DHT22;30781;48.154;11.554;2022-11-23T07:50:28;7.40;98.80
7688;DHT22;30781;48.154;11.554;2022-11-23T07:53:00;7.50;98.70
7688;DHT22;30781;48.154;11.554;2022-11-23T07:55:27;7.50;98.70
7688;DHT22;30781;48.154;11.554;2022-11-23T07:57:55;7.60;98.70
7688;DHT22;30781;48.154;11.554;2022-11-23T08:00:30;7.60;98.60
7688;DHT22;30781;48.154;11.554;2022-11-23T08:03:01;7.80;98.50
7688;DHT22;30781;48.154;11.554;2022-11-23T08:05:31;7.80;98.50
7688;DHT22;30781;48.154;11.554;2022-11-23T08:08:01;7.90;98.40
7688;DHT22;30781;48.154;11.554;2022-11-23T08:10:30;8.00;98.30
7688;DHT22;30781;48.154;11.554;2022-11-23T08:13:02;8.10;98.10
7688;DHT22;30781;48.154;11.554;2022-11-23T08:15:37;8.20;98.00
7688;DHT22;30781;48.154;11.554;2022-11-23T08:18:05;8.30;97.90
7688;DHT22;30781;48.154;11.554;2022-11-23T08:20:57;8.30;97.70
7688;DHT22;30781;48.154;11.554;2022-11-23T08:24:07;8.40;97.40
7688;DHT22;30781;48.154;11.554;2022-11-23T08:30:02;8.50;97.40
7688;DHT22;30781;48.154;11.554;2022-11-23T08:32:32;8.60;97.30
7688;DHT22;30781;48.154;11.554;2022-11-23T08:35:03;8.60;97.20
7688;DHT22;30781;48.154;11.554;2022-11-23T08:37:31;8.70;96.90
7688;DHT22;30781;48.154;11.554;2022-11-23T08:39:58;8.70;96.90
7688;DHT22;30781;48.154;11.554;2022-11-23T08:42:28;8.80;97.10
7688;DHT22;30781;48.154;11.554;2022-11-23T08:44:56;8.90;96.70
7688;DHT22;30781;48.154;11.554;2022-11-23T08:47:25;8.90;96.60
7688;DHT22;30781;48.154;11.554;2022-11-23T08:49:54;9.00;96.70
7688;DHT22;30781;48.154;11.554;2022-11-23T08:52:24;9.10;96.30
7688;DHT22;30781;48.154;11.554;2022-11-23T08:54:54;9.20;96.20
7688;DHT22;30781;48.154;11.554;2022-11-23T08:57:21;9.30;96.10
7688;DHT22;30781;48.154;11.554;2022-11-23T08:59:49;9.40;95.90
7688;DHT22;30781;48.154;11.554;2022-11-23T09:02:16;9.50;95.80
7688;DHT22;30781;48.154;11.554;2022-11-23T09:04:44;9.50;95.70
7688;DHT22;30781;48.154;11.554;2022-11-23T09:07:14;9.60;95.60
7688;DHT22;30781;48.154;11.554;2022-11-23T09:09:41;9.70;95.50
7688;DHT22;30781;48.154;11.554;2022-11-23T09:12:09;9.70;95.50
7688;DHT22;30781;48.154;11.554;2022-11-23T09:14:37;9.80;95.30
7688;DHT22;30781;48.154;11.554;2022-11-23T09:17:07;9.80;95.20
7688;DHT22;30781;48.154;11.554;2022-11-23T09:19:48;9.90;95.10
7688;DHT22;30781;48.154;11.554;2022-11-23T09:22:24;9.90;95.00
7688;DHT22;30781;48.154;11.554;2022-11-23T09:25:05;10.00;94.30
7688;DHT22;30781;48.154;11.554;2022-11-23T09:27:47;10.00;94.10
7688;DHT22;30781;48.154;11.554;2022-11-23T09:30:17;10.00;94.00
7688;DHT22;30781;48.154;11.554;2022-11-23T09:32:46;10.00;93.90
7688;DHT22;30781;48.154;11.554;2022-11-23T09:35:30;10.00;93.60
7688;DHT22;30781;48.154;11.554;2022-11-23T09:38:03;10.00;93.60
7688;DHT22;30781;48.154;11.554;2022-11-23T09:40:34;9.90;93.90
7688;DHT22;30781;48.154;11.554;2022-11-23T09:46:12;9.80;93.80
7688;DHT22;30781;48.154;11.554;2022-11-23T09:49:02;9.70;93.80
7688;DHT22;30781;48.154;11.554;2022-11-23T09:51:37;9.60;94.00
7688;DHT22;30781;48.154;11.554;2022-11-23T09:54:22;9.50;94.10
7688;DHT22;30781;48.154;11.554;2022-11-23T09:56:56;9.50;94.10
7688;DHT22;30781;48.154;11.554;2022-11-23T09:59:40;9.40;94.10
7688;DHT22;30781;48.154;11.554;2022-11-23T10:02:18;9.40;93.80
7688;DHT22;30781;48.154;11.554;2022-11-23T10:04:56;9.30;93.70
7688;DHT22;30781;48.154;11.554;2022-11-23T10:07:48;9.20;93.50
7688;DHT22;30781;48.154;11.554;2022-11-23T10:10:29;9.20;93.60
7688;DHT22;30781;48.154;11.554;2022-11-23T10:13:09;9.20;93.50
7688;DHT22;30781;48.154;11.554;2022-11-23T10:15:48;9.20;93.60
7688;DHT22;30781;48.154;11.554;2022-11-23T10:18:30;9.20;93.60
7688;DHT22;30781;48.154;11.554;2022-11-23T10:21:05;9.20;93.80
7688;DHT22;30781;48.154;11.554;2022-11-23T10:23:51;9.20;93.90
7688;DHT22;30781;48.154;11.554;2022-11-23T10:26:32;9.20;93.80
7688;DHT22;30781;48.154;11.554;2022-11-23T10:29:16;9.20;93.60
7688;DHT22;30781;48.154;11.554;2022-11-23T10:31:48;9.20;93.40
7688;DHT22;30781;48.154;11.554;2022-11-23T10:34:22;9.30;93.10
7688;DHT22;30781;48.154;11.554;2022-11-23T10:36:58;9.30;92.90
7688;DHT22;30781;48.154;11.554;2022-11-23T10:39:27;9.30;92.90
7688;DHT22;30781;48.154;11.554;2022-11-23T10:42:12;9.30;92.70
7688;DHT22;30781;48.154;11.554;2022-11-23T10:44:49;9.30;92.40
7688;DHT22;30781;48.154;11.554;2022-11-23T10:47:37;9.30;92.30
7688;DHT22;30781;48.154;11.554;2022-11-23T10:50:20;9.30;92.20
7688;DHT22;30781;48.154;11.554;2022-11-23T10:52:54;9.40;92.30
7688;DHT22;30781;48.154;11.554;2022-11-23T10:55:25;9.40;92.20
7688;DHT22;30781;48.154;11.554;2022-11-23T10:57:55;9.40;92.30
7688;DHT22;30781;48.154;11.554;2022-11-23T11:00:25;9.40;92.00
7688;DHT22;30781;48.154;11.554;2022-11-23T11:02:54;9.40;92.10
7688;DHT22;30781;48.154;11.554;2022-11-23T11:05:29;9.50;92.10
7688;DHT22;30781;48.154;11.554;2022-11-23T11:07:59;9.60;91.90
7688;DHT22;30781;48.154;11.554;2022-11-23T11:10:37;9.60;91.70
7688;DHT22;30781;48.154;11.554;2022-11-23T11:16:01;9.70;91.90
7688;DHT22;30781;48.154;11.554;2022-11-23T11:18:31;9.80;91.40
7688;DHT22;30781;48.154;11.554;2022-11-23T11:21:00;9.90;91.50
7688;DHT22;30781;48.154;11.554;2022-11-23T11:23:30;10.00;90.90
7688;DHT22;30781;48.154;11.554;2022-11-23T11:26:04;10.10;90.80
7688;DHT22;30781;48.154;11.554;2022-11-23T11:28:35;10.20;90.70
7688;DHT22;30781;48.154;11.554;2022-11-23T11:34:19;10.40;90.30
7688;DHT22;30781;48.154;11.554;2022-11-23T11:36:53;10.50;90.10
7688;DHT22;30781;48.154;11.554;2022-11-23T11:39:24;10.70;90.20
7688;DHT22;30781;48.154;11.554;2022-11-23T11:42:01;10.80;90.00
7688;DHT22;30781;48.154;11.554;2022-11-23T11:44:33;11.00;89.80
7688;DHT22;30781;48.154;11.554;2022-11-23T11:47:13;11.10;88.90
7688;DHT22;30781;48.154;11.554;2022-11-23T11:49:44;11.30;88.10
7688;DHT22;30781;48.154;11.554;2022-11-23T11:52:16;11.30;87.70
7688;DHT22;30781;48.154;11.554;2022-11-23T11:54:51;11.30;87.20
7688;DHT22;30781;48.154;11.554;2022-11-23T11:57:24;11.30;86.60
7688;DHT22;30781;48.154;11.554;2022-11-23T12:00:29;11.30;86.80
7688;DHT22;30781;48.154;11.554;2022-11-23T12:03:17;11.20;86.80
7688;DHT22;30781;48.154;11.554;2022-11-23T12:05:58;11.10;86.60
7688;DHT22;30781;48.154;11.554;2022-11-23T12:08:44;11.00;87.00
7688;DHT22;30781;48.154;11.554;2022-11-23T12:11:40;10.90;86.50
7688;DHT22;30781;48.154;11.554;2022-11-23T12:14:26;10.90;86.00
7688;DHT22;30781;48.154;11.554;2022-11-23T12:17:18;10.90;86.10
7688;DHT22;30781;48.154;11.554;2022-11-23T12:19:59;11.00;86.80
7688;DHT22;30781;48.154;11.554;2022-11-23T12:22:38;11.10;85.30
7688;DHT22;30781;48.154;11.554;2022-11-23T12:25:21;11.20;85.30
7688;DHT22;30781;48.154;11.554;2022-11-23T12:28:01;11.40;84.80
7688;DHT22;30781;48.154;11.554;2022-11-23T12:30:41;11.50;84.10
7688;DHT22;30781;48.154;11.554;2022-11-23T12:33:32;11.50;82.70
7688;DHT22;30781;48.154;11.554;2022-11-23T12:39:30;11.40;83.30
7688;DHT22;30781;48.154;11.554;2022-11-23T12:42:08;11.30;83.80
7688;DHT22;30781;48.154;11.554;2022-11-23T12:45:15;11.30;83.30
7688;DHT22;30781;48.154;11.554;2022-11-23T12:47:51;11.30;83.70
7688;DHT22;30781;48.154;11.554;2022-11-23T12:50:27;11.20;83.90
7688;DHT22;30781;48.154;11.554;2022-11-23T12:53:07;11.20;83.80
7688;DHT22;30781;48.154;11.554;2022-11-23T12:55:46;11.20;84.10
7688;DHT22;30781;48.154;11.554;2022-11-23T12:58:27;11.20;82.50
7688;DHT22;30781;48.154;11.554;2022-11-23T13:00:59;11.30;80.90
7688;DHT22;30781;48.154;11.554;2022-11-23T13:09:49;11.30;77.90
7688;DHT22;30781;48.154;11.554;2022-11-23T13:12:42;11.20;77.80
7688;DHT22;30781;48.154;11.554;2022-11-23T13:15:23;11.10;76.60
7688;DHT22;30781;48.154;11.554;2022-11-23T13:17:59;11.00;77.50
7688;DHT22;30781;48.154;11.554;2022-11-23T13:20:48;10.80;78.40
7688;DHT22;30781;48.154;11.554;2022-11-23T13:23:21;10.70;79.50
7688;DHT22;30781;48.154;11.554;2022-11-23T13:28:49;10.50;81.00
7688;DHT22;30781;48.154;11.554;2022-11-23T13:31:22;10.40;81.00
7688;DHT22;30781;48.154;11.554;2022-11-23T13:33:52;10.30;81.10
7688;DHT22;30781;48.154;11.554;2022-11-23T13:36:38;10.30;81.50
7688;DHT22;30781;48.154;11.554;2022-11-23T13:42:31;10.40;81.20
7688;DHT22;30781;48.154;11.554;2022-11-23T13:45:31;10.30;80.90
7688;DHT22;30781;48.154;11.554;2022-11-23T13:48:17;10.30;81.40
7688;DHT22;30781;48.154;11.554;2022-11-23T13:50:59;10.30;81.60
7688;DHT22;30781;48.154;11.554;2022-11-23T13:53:29;10.40;81.50
7688;DHT22;30781;48.154;11.554;2022-11-23T13:56:14;10.50;80.40
7688;DHT22;30781;48.154;11.554;2022-11-23T13:58:50;10.60;79.60
7688;DHT22;30781;48.154;11.554;2022-11-23T14:04:27;10.70;78.00
7688;DHT22;30781;48.154;11.554;2022-11-23T14:07:04;10.60;75.90
7688;DHT22;30781;48.154;11.554;2022-11-23T14:09:38;10.50;76.30
7688;DHT22;30781;48.154;11.554;2022-11-23T14:12:22;10.50;76.70
7688;DHT22;30781;48.154;11.554;2022-11-23T14:15:02;10.40;77.20
7688;DHT22;30781;48.154;11.554;2022-11-23T14:21:13;10.30;78.00
7688;DHT22;30781;48.154;11.554;2022-11-23T14:27:02;10.30;79.40
7688;DHT22;30781;48.154;11.554;2022-11-23T14:30:00;10.30;79.40
7688;DHT22;30781;48.154;11.554;2022-11-23T14:32:39;10.30;80.20
7688;DHT22;30781;48.154;11.554;2022-11-23T14:35:23;10.30;81.10
7688;DHT22;30781;48.154;11.554;2022-11-23T14:38:09;10.30;81.70
7688;DHT22;30781;48.154;11.554;2022-11-23T14:40:50;10.30;82.20
7688;DHT22;30781;48.154;11.554;2022-11-23T14:43:22;10.20;82.40
7688;DHT22;30781;48.154;11.554;2022-11-23T14:45:59;10.10;82.90
7688;DHT22;30781;48.154;11.554;2022-11-23T14:48:28;10.00;83.40
7688;DHT22;30781;48.154;11.554;2022-11-23T14:50:57;10.00;84.00
7688;DHT22;30781;48.154;11.554;2022-11-23T14:53:34;10.00;84.40
7688;DHT22;30781;48.154;11.554;2022-11-23T14:56:02;9.90;85.80
7688;DHT22;30781;48.154;11.554;2022-11-23T14:58:32;9.80;85.60
7688;DHT22;30781;48.154;11.554;2022-11-23T15:01:09;9.80;86.00
7688;DHT22;30781;48.154;11.554;2022-11-23T15:03:39;9.70;86.20
7688;DHT22;30781;48.154;11.554;2022-11-23T15:06:14;9.70;86.70
7688;DHT22;30781;48.154;11.554;2022-11-23T15:08:47;9.70;87.20
7688;DHT22;30781;48.154;11.554;2022-11-23T15:11:22;9.60;87.50
7688;DHT22;30781;48.154;11.554;2022-11-23T15:13:55;9.50;88.10
7688;DHT22;30781;48.154;11.554;2022-11-23T15:16:38;9.40;88.20
7688;DHT22;30781;48.154;11.554;2022-11-23T15:19:17;9.30;89.20
7688;DHT22;30781;48.154;11.554;2022-11-23T15:21:44;9.30;89.70
7688;DHT22;30781;48.154;11.554;2022-11-23T15:24:24;9.10;90.10
7688;DHT22;30781;48.154;11.554;2022-11-23T15:26:56;9.00;90.30
7688;DHT22;30781;48.154;11.554;2022-11-23T15:29:51;8.90;90.50
7688;DHT22;30781;48.154;11.554;2022-11-23T15:32:27;8.80;90.80
7688;DHT22;30781;48.154;11.554;2022-11-23T15:34:59;8.70;91.00
7688;DHT22;30781;48.154;11.554;2022-11-23T15:37:41;8.70;91.20
7688;DHT22;30781;48.154;11.554;2022-11-23T15:40:18;8.50;91.40
7688;DHT22;30781;48.154;11.554;2022-11-23T15:42:47;8.50;91.50
7688;DHT22;30781;48.154;11.554;2022-11-23T15:45:36;8.40;91.70
7688;DHT22;30781;48.154;11.554;2022-11-23T15:48:11;8.30;91.80
7688;DHT22;30781;48.154;11.554;2022-11-23T15:50:51;8.30;92.30
7688;DHT22;30781;48.154;11.554;2022-11-23T15:53:25;8.20;92.50
7688;DHT22;30781;48.154;11.554;2022-11-23T15:55:58;8.10;92.60
7688;DHT22;30781;48.154;11.554;2022-11-23T15:58:29;8.10;92.90
7688;DHT22;30781;48.154;11.554;2022-11-23T16:01:06;8.00;92.90
7688;DHT22;30781;48.154;11.554;2022-11-23T16:03:46;8.00;93.10
7688;DHT22;30781;48.154;11.554;2022-11-23T16:06:32;7.90;93.30
7688;DHT22;30781;48.154;11.554;2022-11-23T16:09:34;7.80;93.40
7688;DHT22;30781;48.154;11.554;2022-11-23T16:12:30;7.80;93.40
7688;DHT22;30781;48.154;11.554;2022-11-23T16:15:29;7.70;93.70
7688;DHT22;30781;48.154;11.554;2022-11-23T16:18:05;7.60;93.90
7688;DHT22;30781;48.154;11.554;2022-11-23T16:20:32;7.50;94.00
7688;DHT22;30781;48.154;11.554;2022-11-23T16:23:01;7.50;94.10
7688;DHT22;30781;48.154;11.554;2022-11-23T16:25:35;7.50;94.20
7688;DHT22;30781;48.154;11.554;2022-11-23T16:28:18;7.40;94.30
7688;DHT22;30781;48.154;11.554;2022-11-23T16:30:52;7.40;94.20
7688;DHT22;30781;48.154;11.554;2022-11-23T16:33:23;7.30;94.20
7688;DHT22;30781;48.154;11.554;2022-11-23T16:35:55;7.30;94.10
7688;DHT22;30781;48.154;11.554;2022-11-23T16:38:29;7.20;94.10
7688;DHT22;30781;48.154;11.554;2022-11-23T16:41:00;7.20;93.80
7688;DHT22;30781;48.154;11.554;2022-11-23T16:43:39;7.20;93.90
7688;DHT22;30781;48.154;11.554;2022-11-23T16:46:09;7.10;93.80
7688;DHT22;30781;48.154;11.554;2022-11-23T16:48:47;7.10;93.90
7688;DHT22;30781;48.154;11.554;2022-11-23T16:51:16;7.10;93.90
7688;DHT22;30781;48.154;11.554;2022-11-23T16:53:45;7.00;93.90
7688;DHT22;30781;48.154;11.554;2022-11-23T16:56:20;7.00;93.90